Time;durP1;ratioP1;P1;durP2;ratioP2;P2;SDS_P1;SDS_P2;PMS_P1;PMS_P2;Temp;Humidity;BMP_temperature;BMP_pressure;BME280_temperature;BME280_humidity;BME280_pressure;Samples;Min_cycle;Max_cycle;Signal;HPM_P1;HPM_P2
2021/08/05 00:01:24;;;;;;;3.38;2.30;;;16.90;99.90;;;;;;4935296;29;20028;-83
2021/08/05 00:03:49;;;;;;;3.08;2.50;;;16.90;99.90;;;;;;4931788;29;20035;-83
2021/08/05 00:06:15;;;;;;;2.28;2.08;;;16.90;99.90;;;;;;4932182;29;20115;-83
2021/08/05 00:08:41;;;;;;;3.33;2.92;;;16.90;99.90;;;;;;4932130;29;20047;-83
2021/08/05 00:11:07;;;;;;;2.88;2.45;;;16.90;99.90;;;;;;4932463;29;20032;-83
2021/08/05 00:13:33;;;;;;;3.28;2.67;;;16.90;99.90;;;;;;4931398;29;20037;-83
2021/08/05 00:15:58;;;;;;;4.05;2.60;;;16.80;99.90;;;;;;4913671;29;20048;-83
2021/08/05 00:18:24;;;;;;;3.08;2.55;;;16.80;99.90;;;;;;4929043;29;20020;-83
2021/08/05 00:20:50;;;;;;;3.97;3.58;;;16.80;99.90;;;;;;4929541;29;20048;-83
2021/08/05 00:23:16;;;;;;;2.83;2.58;;;16.80;99.90;;;;;;4930457;29;20032;-83
2021/08/05 00:25:42;;;;;;;3.33;3.03;;;16.80;99.90;;;;;;4931772;28;20038;-83
2021/08/05 00:28:07;;;;;;;3.88;3.40;;;16.80;99.90;;;;;;4987324;28;20026;-83
2021/08/05 00:30:33;;;;;;;3.47;3.10;;;16.80;99.90;;;;;;4985719;28;20029;-83
2021/08/05 00:32:59;;;;;;;3.95;3.60;;;16.70;99.90;;;;;;4985765;28;20023;-83
2021/08/05 00:35:25;;;;;;;3.83;3.53;;;16.70;99.90;;;;;;4985745;28;20085;-83
2021/08/05 00:37:51;;;;;;;4.05;3.75;;;16.70;99.90;;;;;;4988126;28;20038;-83
2021/08/05 00:40:16;;;;;;;5.70;3.78;;;16.70;99.90;;;;;;4982816;28;20022;-83
2021/08/05 00:42:42;;;;;;;4.15;3.63;;;16.70;99.90;;;;;;4984086;28;20045;-83
2021/08/05 00:45:08;;;;;;;3.95;3.38;;;16.80;99.90;;;;;;4994643;28;20031;-83
2021/08/05 00:47:34;;;;;;;4.00;2.85;;;16.80;99.90;;;;;;4973596;28;20031;-84
2021/08/05 00:49:59;;;;;;;4.45;4.03;;;16.70;99.90;;;;;;4998901;28;20053;-83
2021/08/05 00:52:25;;;;;;;3.70;3.40;;;16.70;99.90;;;;;;5004193;28;20037;-83
2021/08/05 00:54:51;;;;;;;3.40;3.10;;;16.70;99.90;;;;;;4985716;28;20031;-83
2021/08/05 00:57:17;;;;;;;5.35;3.67;;;16.70;99.90;;;;;;4999705;28;20030;-83
2021/08/05 00:59:43;;;;;;;3.85;3.55;;;16.70;99.90;;;;;;4985644;28;20018;-83
2021/08/05 01:02:19;;;;;;;4.00;3.45;;;16.70;99.90;;;;;;5000028;28;20062;-83
2021/08/05 01:04:48;;;;;;;5.05;3.13;;;16.70;99.90;;;;;;5003496;28;20027;-83
2021/08/05 01:07:34;;;;;;;3.75;3.40;;;16.70;99.90;;;;;;4986498;28;20094;-82
2021/08/05 01:10:17;;;;;;;3.95;3.05;;;16.70;99.90;;;;;;4982522;28;20042;-83
2021/08/05 01:13:06;;;;;;;3.35;3.05;;;16.60;99.90;;;;;;4980884;28;20077;-82
2021/08/05 01:15:32;;;;;;;3.50;3.13;;;16.60;99.90;;;;;;5001058;28;20042;-82
2021/08/05 01:18:13;;;;;;;4.55;3.70;;;16.60;99.90;;;;;;5000847;28;20029;-84
2021/08/05 01:20:42;;;;;;;4.10;3.70;;;16.60;99.90;;;;;;4987787;28;20035;-82
2021/08/05 01:23:34;;;;;;;3.97;3.58;;;16.50;99.90;;;;;;4968761;28;20035;-83
2021/08/05 01:26:28;;;;;;;4.40;4.00;;;16.40;99.90;;;;;;5001628;28;20030;-83
2021/08/05 01:28:54;;;;;;;4.47;3.45;;;16.40;99.90;;;;;;4983193;28;20031;-83
2021/08/05 01:31:23;;;;;;;3.90;3.50;;;16.40;99.90;;;;;;4988232;28;20040;-83
2021/08/05 01:33:49;;;;;;;4.63;4.22;;;16.40;99.90;;;;;;4984170;28;20415;-82
2021/08/05 01:36:16;;;;;;;3.53;3.22;;;16.40;99.90;;;;;;5001221;28;20104;-83
2021/08/05 01:38:43;;;;;;;4.72;4.30;;;16.30;99.90;;;;;;4984882;28;20034;-83
2021/08/05 01:41:10;;;;;;;5.55;4.15;;;16.20;99.90;;;;;;4988069;28;20042;-82
2021/08/05 01:43:38;;;;;;;4.70;4.30;;;16.20;99.90;;;;;;4983468;28;20505;-83
2021/08/05 01:46:04;;;;;;;4.95;4.22;;;16.20;99.90;;;;;;4976711;28;20122;-83
2021/08/05 01:48:32;;;;;;;4.82;4.35;;;16.10;99.90;;;;;;4984547;28;20023;-82
2021/08/05 01:51:00;;;;;;;4.32;3.92;;;16.10;99.90;;;;;;4982679;28;20178;-82
2021/08/05 01:53:26;;;;;;;3.75;3.42;;;16.10;99.90;;;;;;4984781;28;20030;-82
2021/08/05 01:55:53;;;;;;;5.10;4.10;;;16.10;99.90;;;;;;4983908;28;20038;-83
2021/08/05 01:58:18;;;;;;;5.07;4.57;;;16.10;99.90;;;;;;5002844;28;20023;-83
2021/08/05 02:00:44;;;;;;;5.78;5.13;;;16.00;99.90;;;;;;4984692;28;20125;-83
2021/08/05 02:03:12;;;;;;;4.82;3.75;;;16.00;99.90;;;;;;4997839;28;20026;-83
2021/08/05 02:05:41;;;;;;;4.75;4.35;;;16.00;99.90;;;;;;4982816;28;20546;-83
2021/08/05 02:08:09;;;;;;;5.78;4.82;;;16.00;99.90;;;;;;5003593;28;20050;-83
2021/08/05 02:10:37;;;;;;;5.22;4.50;;;16.00;99.90;;;;;;4984545;28;20045;-83
2021/08/05 02:13:10;;;;;;;4.43;3.97;;;16.00;99.90;;;;;;4984848;28;20474;-83
2021/08/05 02:15:42;;;;;;;5.15;4.65;;;16.00;99.90;;;;;;4987422;28;20038;-83
2021/08/05 02:18:10;;;;;;;5.03;4.63;;;16.00;99.90;;;;;;4984572;28;20022;-83
2021/08/05 02:20:36;;;;;;;4.30;3.90;;;16.00;99.90;;;;;;4987537;28;20394;-83
2021/08/05 02:23:02;;;;;;;7.00;4.05;;;16.00;99.90;;;;;;4988277;28;20049;-83
2021/08/05 02:25:29;;;;;;;4.90;4.50;;;15.90;99.90;;;;;;4987883;28;20490;-83
2021/08/05 02:27:55;;;;;;;5.05;4.43;;;15.90;99.90;;;;;;5003748;28;20057;-83
2021/08/05 02:30:21;;;;;;;4.35;3.95;;;15.80;99.90;;;;;;5004361;28;20033;-83
2021/08/05 02:32:48;;;;;;;5.53;5.10;;;15.80;99.90;;;;;;4988120;28;20034;-83
2021/08/05 02:35:16;;;;;;;4.35;3.95;;;15.70;99.90;;;;;;5002762;28;20079;-83
2021/08/05 02:37:42;;;;;;;4.72;4.32;;;15.70;99.90;;;;;;4985200;28;20453;-83
2021/08/05 02:40:09;;;;;;;5.88;4.80;;;15.80;99.90;;;;;;4986928;28;20023;-83
2021/08/05 02:42:36;;;;;;;5.13;4.60;;;15.80;99.90;;;;;;4985106;28;20030;-83
2021/08/05 02:45:03;;;;;;;5.22;4.72;;;15.80;99.90;;;;;;5001600;28;20090;-83
2021/08/05 02:47:29;;;;;;;4.80;4.35;;;15.80;99.90;;;;;;5002967;23;20024;-83
2021/08/05 02:49:56;;;;;;;4.53;4.00;;;15.70;99.90;;;;;;5009626;28;20056;-82
2021/08/05 02:52:22;;;;;;;4.22;3.67;;;15.70;99.90;;;;;;4998105;28;20029;-83
2021/08/05 02:54:48;;;;;;;4.38;3.97;;;15.70;99.90;;;;;;5013785;28;20052;-83
2021/08/05 02:57:14;;;;;;;5.32;3.95;;;15.60;99.90;;;;;;5013818;28;20468;-82
2021/08/05 02:59:42;;;;;;;5.32;3.70;;;15.60;99.90;;;;;;5013824;28;20512;-82
2021/08/05 03:02:08;;;;;;;4.25;3.85;;;15.50;99.90;;;;;;5030567;28;20051;-82
2021/08/05 03:04:34;;;;;;;4.75;4.35;;;15.60;99.90;;;;;;5014070;28;20045;-83
2021/08/05 03:07:01;;;;;;;6.55;5.95;;;15.60;99.90;;;;;;5013507;28;20048;-82
2021/08/05 03:09:28;;;;;;;7.22;5.30;;;15.50;99.90;;;;;;5013923;28;20030;-82
2021/08/05 03:11:54;;;;;;;5.50;5.00;;;15.50;99.90;;;;;;5029958;28;20029;-82
2021/08/05 03:14:20;;;;;;;5.85;5.25;;;15.50;99.90;;;;;;5030090;28;20118;-82
2021/08/05 03:16:46;;;;;;;5.00;4.35;;;15.40;99.90;;;;;;5001635;28;20093;-82
2021/08/05 03:19:11;;;;;;;4.60;4.20;;;15.40;99.90;;;;;;5027773;28;20029;-82
2021/08/05 03:21:37;;;;;;;4.95;4.55;;;15.40;99.90;;;;;;5009944;28;20060;-83
2021/08/05 03:24:03;;;;;;;5.53;5.03;;;15.40;99.90;;;;;;4993738;28;20061;-82
2021/08/05 03:26:29;;;;;;;5.55;5.07;;;15.50;99.90;;;;;;5009588;28;20034;-82
2021/08/05 03:28:55;;;;;;;6.70;4.90;;;15.50;99.90;;;;;;5009936;28;20056;-83
2021/08/05 03:31:20;;;;;;;6.68;5.10;;;15.40;99.90;;;;;;4993265;28;20041;-82
2021/08/05 03:33:46;;;;;;;5.47;5.00;;;15.50;99.90;;;;;;5026280;28;20037;-83
2021/08/05 03:36:12;;;;;;;5.00;4.55;;;15.50;99.90;;;;;;5009372;28;20042;-82
2021/08/05 03:38:37;;;;;;;4.95;4.45;;;15.50;99.90;;;;;;4993584;28;20060;-83
2021/08/05 03:41:04;;;;;;;5.03;4.63;;;15.60;99.90;;;;;;5020609;28;20037;-83
2021/08/05 03:43:30;;;;;;;5.05;4.60;;;15.60;99.90;;;;;;5029112;28;20021;-81
2021/08/05 03:45:58;;;;;;;5.55;5.10;;;15.60;99.90;;;;;;5012559;28;20044;-82
2021/08/05 03:48:24;;;;;;;5.28;4.78;;;15.60;99.90;;;;;;5040575;28;20482;-81
2021/08/05 03:50:50;;;;;;;5.38;4.88;;;15.60;99.90;;;;;;5009170;28;20093;-82
2021/08/05 03:53:15;;;;;;;5.40;4.90;;;15.60;99.90;;;;;;5009129;28;20026;-82
2021/08/05 03:55:41;;;;;;;5.65;5.15;;;15.50;99.90;;;;;;5008595;28;20091;-82
2021/08/05 03:58:09;;;;;;;5.88;5.30;;;15.40;99.90;;;;;;5008938;28;20038;-82
2021/08/05 04:00:34;;;;;;;6.45;5.22;;;15.40;99.90;;;;;;4992682;28;20026;-82
2021/08/05 04:03:00;;;;;;;4.72;4.32;;;15.40;99.90;;;;;;5008996;28;20045;-82
2021/08/05 04:05:26;;;;;;;5.53;4.95;;;15.50;99.90;;;;;;5009009;28;20034;-82
2021/08/05 04:07:52;;;;;;;4.97;4.47;;;15.40;99.90;;;;;;5008810;28;20038;-82
2021/08/05 04:10:18;;;;;;;5.20;4.70;;;15.40;99.90;;;;;;5026089;28;20034;-82
2021/08/05 04:12:43;;;;;;;6.10;5.60;;;15.40;99.90;;;;;;5012823;28;20026;-82
2021/08/05 04:15:09;;;;;;;6.32;5.72;;;15.40;99.90;;;;;;5008703;28;20041;-82
2021/08/05 04:17:35;;;;;;;6.03;5.53;;;15.40;99.90;;;;;;5026706;28;20061;-82
2021/08/05 04:20:02;;;;;;;5.43;4.93;;;15.40;99.90;;;;;;5028227;28;20056;-81
2021/08/05 04:22:27;;;;;;;5.00;4.60;;;15.40;99.90;;;;;;5011951;28;20124;-81
2021/08/05 04:24:53;;;;;;;6.32;5.38;;;15.40;99.90;;;;;;5011640;28;20362;-82
2021/08/05 04:27:18;;;;;;;6.13;5.63;;;15.30;99.90;;;;;;5011485;28;20056;-83
2021/08/05 04:29:44;;;;;;;5.32;4.82;;;15.40;99.90;;;;;;5011955;28;20033;-81
2021/08/05 04:32:10;;;;;;;5.55;5.15;;;15.40;99.90;;;;;;5027673;28;20029;-82
2021/08/05 04:34:36;;;;;;;5.97;5.15;;;15.50;99.90;;;;;;5027609;28;20029;-81
2021/08/05 04:37:02;;;;;;;5.72;5.03;;;15.60;99.90;;;;;;5010849;28;20041;-82
2021/08/05 04:39:27;;;;;;;5.97;5.40;;;15.60;99.90;;;;;;5010729;28;20079;-82
2021/08/05 04:41:53;;;;;;;6.00;5.50;;;15.60;99.90;;;;;;5026971;28;20037;-82
2021/08/05 04:44:18;;;;;;;5.97;5.38;;;15.70;99.90;;;;;;5027370;28;20029;-82
2021/08/05 04:47:04;;;;;;;5.97;5.45;;;15.70;99.90;;;;;;5010623;28;20029;-81
2021/08/05 04:49:30;;;;;;;5.78;5.20;;;15.70;99.90;;;;;;5001341;28;20065;-82
2021/08/05 04:51:55;;;;;;;5.82;5.22;;;15.70;99.90;;;;;;5006515;28;20052;-81
2021/08/05 04:54:21;;;;;;;6.85;5.97;;;15.70;99.90;;;;;;5006481;28;20061;-82
2021/08/05 04:56:47;;;;;;;6.57;6.03;;;15.80;99.90;;;;;;5022669;28;20065;-82
2021/08/05 04:59:12;;;;;;;6.85;6.25;;;15.80;99.90;;;;;;4990149;28;20042;-81
2021/08/05 05:01:38;;;;;;;6.78;6.10;;;15.80;99.90;;;;;;5006382;28;20111;-81
2021/08/05 05:04:04;;;;;;;7.15;6.45;;;15.80;99.90;;;;;;5022967;28;20037;-81
2021/08/05 05:06:29;;;;;;;6.78;6.15;;;15.80;99.90;;;;;;5006275;28;20242;-81
2021/08/05 05:08:55;;;;;;;6.95;6.25;;;15.80;99.90;;;;;;4990103;28;20076;-81
2021/08/05 05:11:21;;;;;;;6.63;6.03;;;15.80;99.90;;;;;;5006337;28;20090;-83
2021/08/05 05:13:47;;;;;;;6.65;6.05;;;15.80;99.90;;;;;;5023646;28;20045;-82
2021/08/05 05:16:12;;;;;;;8.40;7.60;;;15.90;99.90;;;;;;4996793;28;20035;-81
2021/08/05 05:18:38;;;;;;;8.32;7.35;;;15.90;99.90;;;;;;4984104;28;20027;-82
2021/08/05 05:21:04;;;;;;;7.32;6.63;;;15.80;99.90;;;;;;4983637;28;20043;-82
2021/08/05 05:23:31;;;;;;;7.43;6.72;;;15.90;99.90;;;;;;4983658;28;20043;-83
2021/08/05 05:25:57;;;;;;;9.68;7.07;;;16.00;99.90;;;;;;4977338;28;20077;-83
2021/08/05 05:28:23;;;;;;;8.52;7.38;;;16.00;99.90;;;;;;4990869;28;20026;-82
2021/08/05 05:30:48;;;;;;;6.72;6.13;;;16.10;99.90;;;;;;5007430;28;20124;-83
2021/08/05 05:33:14;;;;;;;7.50;6.35;;;16.10;99.90;;;;;;5007329;28;20033;-83
2021/08/05 05:35:40;;;;;;;7.75;7.05;;;16.20;99.90;;;;;;4990896;28;20051;-83
2021/08/05 05:38:07;;;;;;;7.97;6.60;;;16.20;99.90;;;;;;5007264;28;20030;-83
2021/08/05 05:40:33;;;;;;;9.18;7.50;;;16.20;99.90;;;;;;4991047;28;20026;-82
2021/08/05 05:43:00;;;;;;;7.88;6.60;;;16.30;99.90;;;;;;5007191;28;20053;-83
2021/08/05 05:45:27;;;;;;;7.00;6.40;;;16.30;99.90;;;;;;5006961;28;20112;-83
2021/08/05 05:47:52;;;;;;;7.43;6.82;;;16.40;99.90;;;;;;4991614;28;20048;-83
2021/08/05 05:50:19;;;;;;;7.70;6.97;;;16.40;99.90;;;;;;5010287;28;20025;-82
2021/08/05 05:52:45;;;;;;;6.90;6.30;;;16.40;99.90;;;;;;5044480;28;20100;-82
2021/08/05 05:55:11;;;;;;;7.05;6.45;;;16.50;99.90;;;;;;5029234;28;20034;-83
2021/08/05 05:57:37;;;;;;;8.23;7.07;;;16.50;99.90;;;;;;5013782;28;20143;-82
2021/08/05 06:00:04;;;;;;;8.10;7.30;;;16.50;99.90;;;;;;5014017;28;20171;-83
2021/08/05 06:02:37;;;;;;;7.40;6.70;;;16.60;99.90;;;;;;5031282;28;20060;-82
2021/08/05 06:05:03;;;;;;;7.68;6.53;;;16.60;99.90;;;;;;5030322;28;20029;-82
2021/08/05 06:07:28;;;;;;;6.00;5.50;;;16.70;99.90;;;;;;5013591;28;20045;-82
2021/08/05 06:09:54;;;;;;;6.85;6.15;;;16.70;99.90;;;;;;5029536;28;20036;-83
2021/08/05 06:12:47;;;;;;;7.22;6.63;;;16.80;99.90;;;;;;5047773;28;20045;-81
2021/08/05 06:15:14;;;;;;;7.18;6.18;;;16.90;99.90;;;;;;5027262;28;20148;-82
2021/08/05 06:17:45;;;;;;;7.28;6.63;;;16.90;99.90;;;;;;5009813;28;20097;-82
2021/08/05 06:20:12;;;;;;;7.28;6.55;;;17.00;99.90;;;;;;5010345;28;20068;-82
2021/08/05 06:22:42;;;;;;;6.40;5.85;;;17.00;99.90;;;;;;5010571;28;20087;-82
2021/08/05 06:25:09;;;;;;;6.90;6.30;;;17.10;99.90;;;;;;5027959;28;20037;-82
2021/08/05 06:27:34;;;;;;;7.00;6.13;;;17.20;99.90;;;;;;5029162;28;20490;-82
2021/08/05 06:30:00;;;;;;;8.13;7.38;;;17.30;99.90;;;;;;5004470;28;20037;-81
2021/08/05 06:32:26;;;;;;;7.72;6.45;;;17.40;99.90;;;;;;5027229;28;20026;-82
2021/08/05 06:34:52;;;;;;;8.20;7.45;;;17.30;99.90;;;;;;5005049;28;20111;-82
2021/08/05 06:37:17;;;;;;;7.05;6.45;;;17.30;99.90;;;;;;5007166;28;20285;-82
2021/08/05 06:39:43;;;;;;;8.63;6.65;;;17.40;99.90;;;;;;5010033;28;20491;-82
2021/08/05 06:42:09;;;;;;;6.70;6.10;;;17.50;99.90;;;;;;4997465;23;20132;-82
2021/08/05 06:44:36;;;;;;;8.18;7.38;;;17.50;99.90;;;;;;5007222;28;20030;-82
2021/08/05 06:47:03;;;;;;;7.47;6.78;;;17.60;99.90;;;;;;5007877;28;20033;-81
2021/08/05 06:49:29;;;;;;;7.63;6.93;;;17.70;99.90;;;;;;4990102;28;20037;-81
2021/08/05 06:51:55;;;;;;;9.10;6.88;;;17.80;99.90;;;;;;4990239;28;20027;-81
2021/08/05 06:54:21;;;;;;;7.88;7.18;;;17.80;99.90;;;;;;4990285;28;20042;-82
2021/08/05 06:56:46;;;;;;;9.05;8.15;;;17.90;99.90;;;;;;4990004;28;20038;-83
2021/08/05 06:59:13;;;;;;;8.88;7.60;;;17.90;99.90;;;;;;4990000;28;20030;-81
2021/08/05 07:01:39;;;;;;;10.57;9.50;;;18.10;99.90;;;;;;4990132;28;20030;-82
2021/08/05 07:04:04;;;;;;;8.80;8.00;;;18.10;99.90;;;;;;4989440;28;20026;-81
2021/08/05 07:06:30;;;;;;;10.77;9.73;;;18.30;99.90;;;;;;4985522;28;20129;-81
2021/08/05 07:08:56;;;;;;;11.25;9.82;;;18.20;99.90;;;;;;4973597;28;20033;-81
2021/08/05 07:11:21;;;;;;;10.43;9.40;;;18.40;99.90;;;;;;5007338;28;20057;-82
2021/08/05 07:13:47;;;;;;;10.70;9.63;;;18.50;99.90;;;;;;5006655;28;20030;-81
2021/08/05 07:16:13;;;;;;;10.75;9.73;;;18.60;99.90;;;;;;4989189;28;20042;-81
2021/08/05 07:18:39;;;;;;;10.05;9.02;;;18.70;99.90;;;;;;4988949;28;20027;-82
2021/08/05 07:21:04;;;;;;;11.15;10.10;;;18.80;99.90;;;;;;5005477;28;20042;-82
2021/08/05 07:23:30;;;;;;;10.38;9.35;;;18.90;99.90;;;;;;4989310;28;20061;-81
2021/08/05 07:25:56;;;;;;;10.48;9.48;;;18.90;99.90;;;;;;5006978;28;20038;-81
2021/08/05 07:28:21;;;;;;;11.23;10.13;;;19.00;99.90;;;;;;4999275;28;20030;-81
2021/08/05 07:30:48;;;;;;;11.90;10.70;;;19.10;99.90;;;;;;4989236;28;20286;-82
2021/08/05 07:33:13;;;;;;;11.82;9.95;;;19.30;99.90;;;;;;5021932;28;20037;-82
2021/08/05 07:35:39;;;;;;;10.82;9.77;;;19.30;99.90;;;;;;5021552;28;20038;-82
2021/08/05 07:38:05;;;;;;;11.52;10.18;;;19.60;99.90;;;;;;4989265;28;20460;-82
2021/08/05 07:40:30;;;;;;;14.70;13.15;;;19.90;99.90;;;;;;5005380;28;20034;-81
2021/08/05 07:42:56;;;;;;;13.90;12.55;;;20.10;99.90;;;;;;4989951;28;20035;-82
2021/08/05 07:45:22;;;;;;;14.50;12.75;;;20.30;99.90;;;;;;4988126;28;20084;-82
2021/08/05 07:47:47;;;;;;;14.27;12.68;;;20.00;99.90;;;;;;4988189;28;20535;-82
2021/08/05 07:50:14;;;;;;;14.02;11.65;;;19.70;99.90;;;;;;5006634;28;20031;-82
2021/08/05 07:52:40;;;;;;;12.45;10.55;;;19.80;99.90;;;;;;4988595;28;20034;-82
2021/08/05 07:55:07;;;;;;;11.50;10.30;;;19.60;99.90;;;;;;4988893;28;20030;-82
2021/08/05 07:57:34;;;;;;;15.82;13.88;;;19.90;99.90;;;;;;4988686;28;20038;-82
2021/08/05 08:00:00;;;;;;;15.63;14.02;;;19.60;99.90;;;;;;4988284;28;20061;-81
2021/08/05 08:02:27;;;;;;;13.32;12.05;;;19.80;99.90;;;;;;4988960;28;20030;-82
2021/08/05 08:04:53;;;;;;;12.23;11.02;;;20.30;99.90;;;;;;4988835;28;20030;-82
2021/08/05 08:07:18;;;;;;;14.93;13.43;;;20.50;99.90;;;;;;4989025;28;20045;-82
2021/08/05 08:09:44;;;;;;;15.10;13.57;;;20.30;99.90;;;;;;4988980;28;20030;-81
2021/08/05 08:12:10;;;;;;;15.30;13.80;;;20.00;99.90;;;;;;4989028;28;20065;-82
2021/08/05 08:14:35;;;;;;;13.75;12.45;;;19.80;99.90;;;;;;4972794;28;20034;-81
2021/08/05 08:17:01;;;;;;;11.90;10.63;;;19.90;99.90;;;;;;4987274;28;20057;-82
2021/08/05 08:19:28;;;;;;;13.55;12.15;;;20.30;99.90;;;;;;4988676;28;20094;-82
2021/08/05 08:21:53;;;;;;;10.48;9.57;;;20.30;99.90;;;;;;5006161;28;20092;-81
2021/08/05 08:24:20;;;;;;;9.35;8.45;;;20.80;99.90;;;;;;5004385;28;20026;-82
2021/08/05 08:26:45;;;;;;;9.23;8.32;;;21.30;99.90;;;;;;5005913;28;20037;-82
2021/08/05 08:29:11;;;;;;;10.70;9.65;;;21.40;99.90;;;;;;4988423;28;20038;-82
2021/08/05 08:31:37;;;;;;;13.30;11.85;;;21.20;99.90;;;;;;4989382;28;20090;-82
2021/08/05 08:34:02;;;;;;;13.65;11.75;;;21.30;99.90;;;;;;4988022;28;20390;-82
2021/08/05 08:36:28;;;;;;;11.23;10.20;;;21.30;99.90;;;;;;4972069;28;20057;-82
2021/08/05 08:38:54;;;;;;;8.25;7.47;;;21.40;99.90;;;;;;4988432;28;20026;-82
2021/08/05 08:41:20;;;;;;;8.73;7.95;;;21.40;99.90;;;;;;4988209;28;20054;-82
2021/08/05 08:43:54;;;;;;;9.60;8.80;;;21.80;99.90;;;;;;5004697;28;20031;-82
2021/08/05 08:46:20;;;;;;;7.88;7.20;;;22.40;99.90;;;;;;4987851;28;20057;-81
2021/08/05 08:48:50;;;;;;;10.43;9.35;;;23.10;99.90;;;;;;5005475;28;20065;-82
2021/08/05 08:51:18;;;;;;;7.82;7.03;;;22.30;99.90;;;;;;4988185;28;20062;-81
2021/08/05 08:53:44;;;;;;;8.68;7.82;;;22.80;99.90;;;;;;4988329;28;20089;-82
2021/08/05 08:56:10;;;;;;;8.60;7.85;;;22.70;99.90;;;;;;5004929;28;20038;-81
2021/08/05 08:58:37;;;;;;;9.85;8.95;;;22.40;99.90;;;;;;4988200;28;20037;-81
2021/08/05 09:01:03;;;;;;;8.57;7.82;;;22.20;99.90;;;;;;4988071;28;20085;-81
2021/08/05 09:03:28;;;;;;;9.52;8.73;;;22.40;99.90;;;;;;5005070;28;20029;-81
2021/08/05 09:05:54;;;;;;;8.77;8.02;;;22.50;99.90;;;;;;4987493;28;20025;-81
2021/08/05 09:08:21;;;;;;;9.02;8.23;;;22.10;99.90;;;;;;4987515;28;20117;-80
2021/08/05 09:10:47;;;;;;;9.52;8.68;;;22.30;99.90;;;;;;5003213;28;20057;-80
2021/08/05 09:13:15;;;;;;;7.20;6.55;;;22.60;99.90;;;;;;5000238;28;20034;-81
2021/08/05 09:15:47;;;;;;;10.05;9.23;;;23.40;99.90;;;;;;4970948;28;20525;-81
2021/08/05 09:18:32;;;;;;;8.82;7.93;;;23.40;99.90;;;;;;5005223;28;20030;-83
2021/08/05 09:21:03;;;;;;;9.20;8.30;;;23.40;99.90;;;;;;5004323;28;20026;-81
2021/08/05 09:23:47;;;;;;;8.93;8.13;;;23.50;99.90;;;;;;4996108;28;20038;-82
2021/08/05 09:26:43;;;;;;;11.70;10.70;;;22.80;99.90;;;;;;4987436;28;20031;-81
2021/08/05 09:29:23;;;;;;;10.70;9.80;;;22.70;99.90;;;;;;4982296;28;20027;-82
2021/08/05 09:31:51;;;;;;;8.80;8.00;;;22.80;99.90;;;;;;4990072;28;20052;-81
2021/08/05 09:34:21;;;;;;;7.88;7.18;;;23.30;99.90;;;;;;4975387;28;20037;-81
2021/08/05 09:36:49;;;;;;;8.02;7.32;;;23.70;99.90;;;;;;4990855;28;20093;-80
2021/08/05 09:39:14;;;;;;;8.30;7.50;;;23.90;99.90;;;;;;4981991;28;20030;-82
2021/08/05 09:42:11;;;;;;;5.68;5.28;;;24.10;99.90;;;;;;5007502;28;20057;-80
2021/08/05 09:44:42;;;;;;;6.43;5.82;;;24.10;99.90;;;;;;4987334;28;20038;-81
2021/08/05 09:47:15;;;;;;;6.80;6.15;;;23.90;99.90;;;;;;4989254;28;20075;-81
2021/08/05 09:49:52;;;;;;;8.88;7.95;;;23.70;99.90;;;;;;4975073;28;20122;-81
2021/08/05 09:52:29;;;;;;;10.68;9.55;;;23.40;99.90;;;;;;5000952;28;20088;-81
2021/08/05 09:54:59;;;;;;;9.15;8.20;;;23.10;99.90;;;;;;4991865;28;20034;-81
2021/08/05 09:57:27;;;;;;;12.35;11.27;;;23.10;99.90;;;;;;4991202;28;20042;-83
2021/08/05 10:00:06;;;;;;;9.50;8.50;;;23.00;99.90;;;;;;5007755;28;20053;-82
2021/08/05 10:02:51;;;;;;;7.18;6.55;;;23.50;99.90;;;;;;5007197;28;20052;-80
2021/08/05 10:05:18;;;;;;;6.10;5.60;;;24.00;99.90;;;;;;4991181;28;20038;-81
2021/08/05 10:07:47;;;;;;;5.45;4.95;;;24.30;99.90;;;;;;4990978;28;20026;-81
2021/08/05 10:10:14;;;;;;;6.85;5.97;;;25.00;99.90;;;;;;4975271;28;20030;-82
2021/08/05 10:12:41;;;;;;;7.43;6.72;;;24.70;99.90;;;;;;4978545;28;20051;-82
2021/08/05 10:15:12;;;;;;;7.95;7.25;;;24.50;99.90;;;;;;4972043;28;20042;-81
2021/08/05 10:17:39;;;;;;;7.75;6.07;;;23.80;99.90;;;;;;5018315;28;20031;-80
2021/08/05 10:20:08;;;;;;;7.65;6.97;;;23.60;99.90;;;;;;4987109;28;20092;-81
2021/08/05 10:22:35;;;;;;;9.53;8.63;;;23.70;99.90;;;;;;4955679;28;20043;-81
2021/08/05 10:25:07;;;;;;;8.55;7.75;;;23.40;99.90;;;;;;4971559;28;20346;-81
2021/08/05 10:27:33;;;;;;;9.90;9.00;;;23.10;99.90;;;;;;4987573;28;20039;-81
2021/08/05 10:30:00;;;;;;;8.85;8.07;;;23.00;99.90;;;;;;4986175;28;20102;-81
2021/08/05 10:32:29;;;;;;;9.15;8.25;;;23.10;99.90;;;;;;5038592;23;20092;-80
2021/08/05 10:34:54;;;;;;;8.55;7.80;;;23.10;99.90;;;;;;4984821;28;20114;-80
2021/08/05 10:37:20;;;;;;;7.07;6.40;;;22.90;99.90;;;;;;5002436;28;20039;-81
2021/08/05 10:39:47;;;;;;;7.38;6.63;;;23.10;99.90;;;;;;5043924;28;20288;-81
2021/08/05 10:42:16;;;;;;;9.00;7.97;;;23.40;99.90;;;;;;5016178;28;20033;-81
2021/08/05 10:44:42;;;;;;;8.65;7.88;;;23.00;99.90;;;;;;5026553;28;20034;-81
2021/08/05 10:47:20;;;;;;;9.00;8.20;;;22.70;99.90;;;;;;5006786;28;20148;-81
2021/08/05 10:49:48;;;;;;;9.40;8.60;;;22.60;99.90;;;;;;5012372;28;20092;-82
2021/08/05 10:52:36;;;;;;;8.55;7.82;;;22.60;99.90;;;;;;5000506;28;20057;-82
2021/08/05 10:55:22;;;;;;;14.77;13.38;;;22.80;99.90;;;;;;5018922;28;20030;-81
2021/08/05 10:58:21;;;;;;;14.02;12.60;;;22.40;99.90;;;;;;5025568;28;20037;-80
2021/08/05 11:00:49;;;;;;;11.27;10.25;;;22.60;99.90;;;;;;5003668;28;20059;-81
2021/08/05 11:03:38;;;;;;;10.80;9.63;;;22.30;99.90;;;;;;5025900;28;20042;-82
2021/08/05 11:06:24;;;;;;;10.60;9.52;;;22.40;99.90;;;;;;5009621;28;20049;-81
2021/08/05 11:08:50;;;;;;;11.07;9.98;;;22.80;99.90;;;;;;4993231;28;20034;-81
2021/08/05 11:11:22;;;;;;;8.98;8.07;;;23.40;99.90;;;;;;5009304;28;20061;-82
2021/08/05 11:14:00;;;;;;;7.40;6.70;;;23.70;99.90;;;;;;4993145;28;20033;-81
2021/08/05 11:16:59;;;;;;;7.75;7.03;;;24.10;99.90;;;;;;5001454;28;20041;-81
2021/08/05 11:19:27;;;;;;;9.90;9.00;;;23.80;99.90;;;;;;5012401;28;20037;-81
2021/08/05 11:21:54;;;;;;;9.30;8.40;;;24.00;99.90;;;;;;5012220;28;20064;-81
2021/08/05 11:24:48;;;;;;;8.98;8.13;;;24.00;99.90;;;;;;5023499;28;20057;-82
2021/08/05 11:27:22;;;;;;;10.75;8.35;;;24.30;99.90;;;;;;5001634;28;20038;-80
2021/08/05 11:29:49;;;;;;;8.60;7.75;;;24.10;99.90;;;;;;4992817;28;20026;-82
2021/08/05 11:32:21;;;;;;;8.20;6.97;;;24.40;99.90;;;;;;4992437;28;20050;-82
2021/08/05 11:35:05;;;;;;;9.27;8.43;;;24.00;99.90;;;;;;4992554;28;20042;-81
2021/08/05 11:37:31;;;;;;;8.55;7.85;;;24.10;99.90;;;;;;4992362;28;20042;-81
2021/08/05 11:39:59;;;;;;;8.88;8.10;;;24.40;99.90;;;;;;5008427;28;20401;-81
2021/08/05 11:42:26;;;;;;;9.98;8.85;;;23.80;99.90;;;;;;5008637;28;20065;-81
2021/08/05 11:44:59;;;;;;;8.55;7.65;;;23.50;99.90;;;;;;5001106;28;20033;-81
2021/08/05 11:47:27;;;;;;;7.70;6.97;;;23.30;99.90;;;;;;5028210;23;20021;-81
2021/08/05 11:50:19;;;;;;;7.65;6.88;;;23.10;99.90;;;;;;5011092;28;20195;-80
2021/08/05 11:53:06;;;;;;;7.13;6.43;;;23.10;99.90;;;;;;5024895;28;20029;-81
2021/08/05 11:55:34;;;;;;;5.68;4.75;;;23.00;99.90;;;;;;5025030;28;20041;-81
2021/08/05 11:58:03;;;;;;;7.40;6.70;;;23.00;99.90;;;;;;5011863;28;20040;-80
2021/08/05 12:00:35;;;;;;;6.22;5.63;;;22.80;99.90;;;;;;5012284;28;20033;-81
2021/08/05 12:03:07;;;;;;;7.10;6.40;;;22.70;99.90;;;;;;5046415;28;20040;-81
2021/08/05 12:05:37;;;;;;;7.25;6.68;;;22.60;99.90;;;;;;5028248;28;20041;-81
2021/08/05 12:08:04;;;;;;;6.68;6.07;;;22.60;99.90;;;;;;5028149;28;20044;-80
2021/08/05 12:10:31;;;;;;;7.75;7.15;;;22.50;99.90;;;;;;5011569;28;20065;-81
2021/08/05 12:13:03;;;;;;;8.50;7.05;;;22.40;99.90;;;;;;5046115;28;20084;-81
2021/08/05 12:15:41;;;;;;;8.38;7.57;;;22.40;99.90;;;;;;5011650;28;20038;-79
2021/08/05 12:18:12;;;;;;;8.75;7.85;;;22.00;99.90;;;;;;5045386;28;20045;-80
2021/08/05 12:20:41;;;;;;;12.43;11.23;;;21.90;99.90;;;;;;5027854;28;20036;-80
2021/08/05 12:23:16;;;;;;;10.35;9.27;;;21.60;99.90;;;;;;5010937;28;20041;-82
2021/08/05 12:25:48;;;;;;;14.23;12.85;;;21.60;99.90;;;;;;5027590;28;20184;-81
2021/08/05 12:28:16;;;;;;;12.73;11.63;;;21.20;99.90;;;;;;5027529;28;20065;-82
2021/08/05 12:30:52;;;;;;;15.13;13.52;;;21.30;99.90;;;;;;5011224;28;20100;-83
2021/08/05 12:33:26;;;;;;;15.98;14.10;;;21.20;99.90;;;;;;5011107;28;20097;-85
2021/08/05 12:36:05;;;;;;;15.18;13.80;;;21.10;99.90;;;;;;5011050;28;20113;-81
2021/08/05 12:38:30;;;;;;;15.70;14.15;;;20.90;99.90;;;;;;5010254;28;20039;-81
2021/08/05 12:40:58;;;;;;;17.40;15.80;;;20.60;99.90;;;;;;5027519;28;20033;-82
2021/08/05 12:43:27;;;;;;;15.52;13.90;;;20.40;99.90;;;;;;5027440;28;20171;-81
2021/08/05 12:45:55;;;;;;;15.20;13.70;;;20.40;99.90;;;;;;5010895;28;20035;-81
2021/08/05 12:48:22;;;;;;;15.98;14.48;;;20.50;99.90;;;;;;5026906;28;20417;-82
2021/08/05 12:50:49;;;;;;;14.45;12.90;;;20.60;99.90;;;;;;5027263;28;20033;-82